Flight Track Log - Related Links

Times and Time Zones

All times are in EDT time to prevent confusion due to time zone crossing. See the N53NW flight status page for this flight to view local times or setup timezone preferences in your user account.

Time Position Orientation Groundspeed Altitude Reporting Facility
EDT Latitude Longitude Course Direction KTS MPH feet Rate Location/Type
Fri 02:03:14 PM 39.5656 -84.3375 288° West 220 253 3,000  Level Indianapolis Center
Fri 02:04:31 PM 39.5906 -84.4347 288° West 224 258 3,500 1,846 Climbing Indianapolis Center
Fri 02:04:45 PM 39.5928 -84.4542 278° West 222 255 5,800 5,226 Climbing Indianapolis Center
Fri 02:05:33 PM 39.6092 -84.5150 289° West 232 267 8,900 3,600 Climbing Indianapolis Center
Fri 02:06:35 PM 39.6286 -84.6011 286° West 245 282 12,400 2,129 Climbing Indianapolis Center
Fri 02:07:37 PM 39.6514 -84.6911 288° West 257 296 13,300 1,403 Climbing Indianapolis Center
Fri 02:08:39 PM 39.6819 -84.7811 294° West 274 315 15,300 2,129 Climbing Indianapolis Center
Fri 02:09:41 PM 39.7297 -84.8600 308° West 277 319 17,700 2,661 Climbing Indianapolis Center
Fri 02:10:43 PM 39.7594 -84.9589 291° West 272 313 20,800 2,855 Climbing Indianapolis Center
Fri 02:11:45 PM 39.7789 -85.0500 286° West 265 305 23,600 2,710 Climbing Indianapolis Center
Fri 02:12:47 PM 39.7989 -85.1386 286° West 258 297 26,400 2,806 Climbing Indianapolis Center
Fri 02:13:49 PM 39.8200 -85.2422 285° West 249 287 29,400 2,516 Climbing Indianapolis Center
Fri 02:14:51 PM 39.8381 -85.3269 286° West 245 282 31,600 1,742 Climbing Indianapolis Center
Fri 02:15:53 PM 39.8561 -85.4147 285° West 249 287 33,000 1,355 Climbing Indianapolis Center
Fri 02:16:55 PM 39.8756 -85.5075 285° West 264 304 34,400 1,248 Climbing Indianapolis Center
Fri 02:17:58 PM 39.8961 -85.6019 286° West 271 312 35,600 1,258 Climbing Indianapolis Center
Fri 02:18:59 PM 39.9194 -85.7175 285° West 277 319 37,000 1,220 Climbing Indianapolis Center
Fri 02:20:01 PM 39.9392 -85.8131 285° West 277 319 38,100 968 Climbing Indianapolis Center
Fri 02:21:03 PM 39.9597 -85.9106 285° West 280 322 39,000 726 Climbing Indianapolis Center
Fri 02:22:05 PM 39.9803 -86.0111 285° West 289 333 39,600 576 Climbing Indianapolis Center
Fri 02:23:08 PM 40.0014 -86.1150 285° West 299 344 40,200 624 Climbing Indianapolis Center
Fri 02:24:10 PM 40.0272 -86.2406 285° West 302 348 40,900 629 Climbing Indianapolis Center
Fri 02:25:12 PM 40.0486 -86.3472 285° West 307 353 41,500 581 Climbing Indianapolis Center
Fri 02:26:14 PM 40.0689 -86.4536 284° West 307 353 42,100 581 Climbing Indianapolis Center
Fri 02:27:16 PM 40.0897 -86.5594 284° West 304 350 42,700 435 Climbing Indianapolis Center
Fri 02:28:18 PM 40.1108 -86.6658 285° West 304 350 43,000 159 Climbing Indianapolis Center
Fri 02:29:09 PM 40.1319 -86.7769 284° West 315 362 43,000  Level Chicago Center
Fri 02:30:11 PM 40.1547 -86.8928 284° West 327 376 43,000  Level Chicago Center
Fri 02:31:14 PM 40.1775 -87.0072 285° West 329 379 43,000  Level Chicago Center
Fri 02:32:16 PM 40.1989 -87.1233 284° West 329 379 43,000  Level Chicago Center
Fri 02:33:18 PM 40.2258 -87.2603 284° West 326 375 43,000  Level Chicago Center
Fri 02:34:21 PM 40.2472 -87.3761 284° West 328 377 43,000  Level Chicago Center
Fri 02:35:22 PM 40.2678 -87.4806 284° West 325 374 43,000  Level Chicago Center
Fri 02:36:24 PM 40.2942 -87.6189 284° West 327 376 43,000  Level Chicago Center
Fri 02:37:26 PM 40.3153 -87.7336 284° West 325 374 43,000  Level Chicago Center
Fri 02:38:28 PM 40.3369 -87.8494 284° West 327 376 43,000  Level Chicago Center
Fri 02:39:30 PM 40.3589 -87.9644 284° West 326 375 43,000  Level Chicago Center
Fri 02:40:32 PM 40.3797 -88.0783 284° West 323 372 43,000  Level Chicago Center
Fri 02:41:35 PM 40.4011 -88.1939 284° West 325 374 43,000  Level Chicago Center
Fri 02:42:37 PM 40.4264 -88.3319 284° West 325 374 43,000  Level Chicago Center
Fri 02:43:39 PM 40.4464 -88.4469 283° West 324 373 43,000  Level Chicago Center
Fri 02:44:41 PM 40.4672 -88.5614 283° West 324 373 43,000  Level Chicago Center
Fri 02:45:43 PM 40.4889 -88.6772 284° West 325 374 43,000  Level Chicago Center
Fri 02:46:45 PM 40.5089 -88.7931 283° West 325 374 43,000  Level Chicago Center
Fri 02:47:47 PM 40.5322 -88.9278 283° West 326 375 43,000  Level Chicago Center
Fri 02:48:49 PM 40.5531 -89.0444 283° West 327 376 43,000  Level Chicago Center
Fri 02:49:51 PM 40.5728 -89.1603 283° West 325 374 43,000  Level Chicago Center
Fri 02:50:53 PM 40.5922 -89.2767 282° West 327 376 43,000  Level Chicago Center
Fri 02:51:55 PM 40.6122 -89.3936 283° West 328 377 43,000  Level Chicago Center
Fri 02:52:58 PM 40.6322 -89.5106 283° West 329 379 43,000  Level Chicago Center
Fri 02:54:00 PM 40.6564 -89.6539 283° West 328 377 43,000  Level Chicago Center
Fri 02:55:02 PM 40.6781 -89.7722 284° West 332 382 43,000  Level Chicago Center
Fri 02:56:04 PM 40.6989 -89.8906 283° West 333 383 43,000  Level Chicago Center
Fri 02:57:06 PM 40.7153 -90.0078 280° West 330 380 43,000  Level Chicago Center
Fri 02:58:08 PM 40.7364 -90.1269 283° West 333 383 43,000  Level Chicago Center
Fri 02:59:10 PM 40.7569 -90.2583 282° West 336 387 43,000  Level Chicago Center
Fri 03:00:12 PM 40.7772 -90.3783 283° West 336 387 43,000  Level Chicago Center
Fri 03:01:14 PM 40.7961 -90.4989 282° West 335 386 43,000  Level Chicago Center
Fri 03:02:16 PM 40.8150 -90.6206 282° West 338 389 43,000  Level Chicago Center
Fri 03:03:18 PM 40.8383 -90.7650 282° West 335 386 43,000  Level Chicago Center
Fri 03:04:21 PM 40.8567 -90.8875 281° West 338 389 43,000  Level Chicago Center
Fri 03:05:23 PM 40.8761 -91.0089 282° West 339 390 43,000  Level Chicago Center
Fri 03:06:25 PM 40.8950 -91.1303 282° West 338 389 43,000  Level Chicago Center
Fri 03:07:27 PM 40.9139 -91.2511 282° West 337 388 43,000  Level Chicago Center
Fri 03:08:29 PM 40.9336 -91.3839 281° West 336 387 43,000  Level Chicago Center
Fri 03:09:31 PM 40.9514 -91.5053 281° West 338 389 43,000  Level Chicago Center
Fri 03:10:33 PM 40.9703 -91.6250 282° West 337 388 43,000  Level Chicago Center
Fri 03:11:35 PM 40.9914 -91.7700 281° West 338 389 43,000  Level Chicago Center
Fri 03:12:37 PM 41.0086 -91.8911 281° West 338 389 43,000  Level Chicago Center
Fri 03:13:39 PM 41.0281 -92.0136 282° West 342 394 43,000  Level Chicago Center
Fri 03:14:41 PM 41.0464 -92.1344 281° West 340 391 43,000  Level Chicago Center
Fri 03:15:44 PM 41.0636 -92.2547 281° West 337 388 43,000  Level Chicago Center
Fri 03:16:46 PM 41.0842 -92.4008 281° West 340 391 43,000  Level Chicago Center
Fri 03:17:48 PM 41.1011 -92.5236 280° West 342 394 43,000  Level Chicago Center
Fri 03:18:50 PM 41.1189 -92.6447 281° West 339 390 43,000  Level Chicago Center
Fri 03:19:52 PM 41.1353 -92.7678 280° West 342 394 43,000  Level Chicago Center
Fri 03:20:54 PM 41.1569 -92.9125 281° West 339 390 43,000  Level Chicago Center
Fri 03:21:56 PM 41.1725 -93.0369 279° West 342 394 43,000  Level Chicago Center
Fri 03:22:58 PM 41.1889 -93.1578 280° West 339 390 43,000  Level Chicago Center
Fri 03:24:00 PM 41.2044 -93.2828 279° West 344 396 43,000  Level Chicago Center
Fri 03:25:02 PM 41.2222 -93.4025 281° West 337 388 43,000  Level Chicago Center
Fri 03:26:04 PM 41.2414 -93.5511 280° West 342 394 43,000  Level Chicago Center
Fri 03:27:07 PM 41.2569 -93.6742 280° West 341 392 43,000  Level Chicago Center
Fri 03:28:33 PM 41.2814 -93.8456 281° West 345 397 43,000  Level Minneapolis Center
Fri 03:29:35 PM 41.2969 -93.9681 280° West 342 394 43,000  Level Minneapolis Center
Fri 03:30:37 PM 41.3131 -94.0906 280° West 341 392 43,000  Level Minneapolis Center
Fri 03:31:39 PM 41.3306 -94.2231 280° West 341 392 43,000  Level Minneapolis Center
Fri 03:32:41 PM 41.3444 -94.3475 278° West 340 391 43,000  Level Minneapolis Center
Fri 03:33:42 PM 41.3633 -94.4958 280° West 340 391 43,000  Level Minneapolis Center
Fri 03:34:44 PM 41.3803 -94.6194 280° West 339 390 43,000  Level Minneapolis Center
Fri 03:35:46 PM 41.3942 -94.7447 278° West 342 394 43,000  Level Minneapolis Center
Fri 03:36:48 PM 41.4083 -94.8692 279° West 341 392 43,000  Level Minneapolis Center
Fri 03:37:50 PM 41.4228 -94.9936 279° West 341 392 43,000  Level Minneapolis Center
Fri 03:38:52 PM 41.4381 -95.1186 279° West 342 394 43,000  Level Minneapolis Center
Fri 03:39:54 PM 41.4550 -95.2700 279° West 345 397 43,000  Level Minneapolis Center
Fri 03:40:56 PM 41.4703 -95.3953 279° West 344 396 43,000  Level Minneapolis Center
Fri 03:41:58 PM 41.4844 -95.5214 279° West 344 396 43,000  Level Minneapolis Center
Fri 03:43:00 PM 41.4986 -95.6481 279° West 344 396 43,000  Level Minneapolis Center
Fri 03:44:02 PM 41.5133 -95.7750 279° West 346 398 43,000  Level Minneapolis Center
Fri 03:45:04 PM 41.5267 -95.9025 278° West 347 399 43,000  Level Minneapolis Center
Fri 03:46:06 PM 41.5444 -96.0542 279° West 347 399 43,000  Level Minneapolis Center
Fri 03:47:08 PM 41.5572 -96.1817 278° West 347 399 43,000  Level Minneapolis Center
Fri 03:48:10 PM 41.5717 -96.3086 279° West 344 396 43,000  Level Minneapolis Center
Fri 03:49:12 PM 41.5844 -96.4269 278° West 346 398 43,000  Level Minneapolis Center
Fri 03:50:14 PM 41.5972 -96.5542 278° West 347 399 43,000  Level Minneapolis Center
Fri 03:51:16 PM 41.6139 -96.7067 278° West 348 400 43,000  Level Minneapolis Center
Fri 03:52:18 PM 41.6275 -96.8344 278° West 348 400 43,000  Level Minneapolis Center
Fri 03:53:20 PM 41.6414 -96.9631 278° West 349 402 43,000  Level Minneapolis Center
Fri 03:54:22 PM 41.6561 -97.0908 279° West 349 402 43,000  Level Minneapolis Center
Fri 03:55:24 PM 41.6689 -97.2186 278° West 349 402 43,000  Level Minneapolis Center
Fri 03:56:25 PM 41.6825 -97.3475 278° West 350 403 43,000  Level Minneapolis Center
Fri 03:57:27 PM 41.6986 -97.5022 278° West 351 404 43,000  Level Minneapolis Center
Fri 03:58:29 PM 41.7108 -97.6314 277° West 351 404 43,000  Level Minneapolis Center
Fri 03:59:31 PM 41.7250 -97.7614 278° West 352 405 43,000  Level Minneapolis Center
Fri 04:00:33 PM 41.7375 -97.8925 277° West 354 407 43,000  Level Minneapolis Center
Fri 04:01:35 PM 41.7506 -98.0214 278° West 352 405 43,000  Level Minneapolis Center
Fri 04:02:37 PM 41.7639 -98.1614 277° West 353 406 43,000  Level Minneapolis Center
Fri 04:03:40 PM 41.7764 -98.2919 277° West 354 407 43,000  Level Minneapolis Center
Fri 04:04:42 PM 41.7892 -98.4228 278° West 355 409 43,000  Level Minneapolis Center
Fri 04:05:44 PM 41.8039 -98.5797 277° West 356 410 43,000  Level Minneapolis Center
Fri 04:06:46 PM 41.8156 -98.7117 277° West 357 411 43,000  Level Minneapolis Center
Fri 04:07:48 PM 41.8286 -98.8433 278° West 358 412 43,000  Level Minneapolis Center
Fri 04:08:50 PM 41.8394 -98.9750 276° West 357 411 43,000  Level Minneapolis Center
Fri 04:09:48 PM 41.8503 -99.1064 276° West 357 411 43,000  Level Denver Center
Fri 04:10:50 PM 41.8622 -99.2383 277° West 358 412 43,000  Level Denver Center
Fri 04:11:52 PM 41.8736 -99.3717 277° West 360 414 43,000  Level Denver Center
Fri 04:12:54 PM 41.8875 -99.5294 277° West 359 413 43,000 -581 Level Denver Center
Fri 04:13:56 PM 41.8992 -99.6619 277° West 358 412 41,800 -1,306 Descending Denver Center
Fri 04:14:58 PM 41.9083 -99.7850 276° West 353 406 40,300 -871 Descending Denver Center
Fri 04:16:00 PM 41.9197 -99.9264 276° West 345 397 40,000 -145 Descending Denver Center
Fri 04:17:02 PM 41.9294 -100.0497 276° West 347 399 40,000 -774 Level Denver Center
Fri 04:18:04 PM 41.9414 -100.2011 276° West 364 419 38,400 -976 Descending Denver Center
Fri 04:19:05 PM 41.9525 -100.3269 277° West 359 413 38,000 -195 Descending Denver Center
Fri 04:20:07 PM 41.9636 -100.4783 276° West 364 419 38,000  Level Denver Center
Fri 04:21:09 PM 41.9731 -100.6081 276° West 364 419 38,000  Level Denver Center
Fri 04:22:11 PM 41.9842 -100.7631 276° West 371 427 38,000 -581 Level Denver Center
Fri 04:23:13 PM 41.9897 -100.8961 273° West 373 429 36,800 -1,742 Descending Denver Center
Fri 04:24:15 PM 41.9953 -101.0275 273° West 369 425 34,400 -2,516 Descending Denver Center
Fri 04:25:17 PM 42.0014 -101.1750 273° West 358 412 31,600 -2,516 Descending Denver Center
Fri 04:26:19 PM 42.0053 -101.3067 272° West 367 422 29,200 -2,516 Descending Denver Center
Fri 04:27:21 PM 42.0122 -101.4633 273° West 376 433 26,400 -2,565 Descending Denver Center
Fri 04:28:23 PM 42.0167 -101.5939 273° West 368 423 23,900 -2,613 Descending Denver Center
Fri 04:29:25 PM 42.0222 -101.7414 273° West 357 411 21,000 -2,613 Descending Denver Center
Fri 04:30:27 PM 42.0258 -101.8661 272° West 351 404 18,500 -2,565 Descending Denver Center
Fri 04:31:29 PM 42.0306 -102.0050 273° West 337 388 15,700 -2,565 Descending Denver Center
Fri 04:32:31 PM 42.0350 -102.1200 273° West 326 375 13,200 -2,516 Descending Denver Center
Fri 04:33:33 PM 42.0378 -102.2372 272° West 312 359 10,500 -2,516 Descending Denver Center
Fri 04:34:35 PM 42.0408 -102.3481 272° West 276 318 8,000 -1,548 Descending Denver Center
Fri 04:35:37 PM 42.0383 -102.4556 268° West 272 313 7,300 -515 Descending Denver Center
Fri 04:37:00 PM 42.0434 -102.6235 276° West  Level FlightAware Approximate
Fri 04:37:53 PM 42.0447 -102.6303 276° West 257 296 6,300  Level Denver Center

Login

Don't have an account? Register now (free) for customized features, flight alerts, and more!